Time;durP1;ratioP1;P1;durP2;ratioP2;P2;SDS_P1;SDS_P2;PMS_P1;PMS_P2;Temp;Humidity;BMP_temperature;BMP_pressure;BME280_temperature;BME280_humidity;BME280_pressure;Samples;Min_cycle;Max_cycle;Signal;HPM_P1;HPM_P2
2022/02/10 00:04:31;;;;;;;7.28;6.13;;;;;;;;;;6188143;23;20031;-82
2022/02/10 00:07:14;;;;;;;6.82;6.13;;;;;;;;;;6190341;23;20017;-82
2022/02/10 00:15:45;;;;;;;8.38;5.88;;;;;;;;;;6201769;23;20588;-82
2022/02/10 00:18:33;;;;;;;7.95;5.68;;;;;;;;;;6198648;22;20044;-82
2022/02/10 00:21:03;;;;;;;6.63;5.65;;;;;;;;;;6200329;23;20366;-83
2022/02/10 00:23:46;;;;;;;6.20;5.60;;;;;;;;;;6206729;23;20020;-82
2022/02/10 00:34:30;;;;;;;5.97;5.32;;;;;;;;;;6227265;23;20024;-83
2022/02/10 00:40:01;;;;;;;5.88;4.95;;;;;;;;;;6184206;23;20020;-83
2022/02/10 00:42:22;;;;;;;7.28;5.10;;;;;;;;;;6209847;23;20100;-82
2022/02/10 00:44:48;;;;;;;6.80;4.95;;;;;;;;;;6183715;23;20023;-83
2022/02/10 00:47:13;;;;;;;5.85;5.25;;;;;;;;;;6210002;23;20032;-82
2022/02/10 00:49:41;;;;;;;5.47;4.97;;;;;;;;;;6186558;23;20044;-83
2022/02/10 00:52:07;;;;;;;6.70;5.00;;;;;;;;;;6211114;23;20024;-82
2022/02/10 00:54:36;;;;;;;7.78;5.13;;;;;;;;;;6210464;23;20024;-83
2022/02/10 00:57:06;;;;;;;7.30;5.38;;;;;;;;;;6186375;23;20039;-84
2022/02/10 00:59:46;;;;;;;6.60;5.40;;;;;;;;;;6185802;23;20023;-83
2022/02/10 01:10:28;;;;;;;4.82;4.32;;;;;;;;;;6184655;23;20095;-83
2022/02/10 01:13:03;;;;;;;6.25;5.40;;;;;;;;;;6203604;23;20017;-82
2022/02/10 01:31:56;;;;;;;4.90;4.40;;;;;;;;;;6197942;23;20421;-83
2022/02/10 01:34:23;;;;;;;8.20;5.43;;;;;;;;;;6189856;23;20124;-83
2022/02/10 01:36:49;;;;;;;6.00;4.55;;;;;;;;;;6211978;23;20020;-82
2022/02/10 01:39:20;;;;;;;5.57;4.57;;;;;;;;;;6212801;23;20051;-83
2022/02/10 01:42:31;;;;;;;5.43;4.93;;;;;;;;;;6213376;22;20091;-83
2022/02/10 01:57:46;;;;;;;5.85;4.72;;;;;;;;;;6218685;23;20020;-82
2022/02/10 02:03:46;;;;;;;5.27;4.30;;;;;;;;;;6186166;23;20023;-83
2022/02/10 02:06:25;;;;;;;5.35;4.85;;;;;;;;;;6156558;23;20752;-83
2022/02/10 02:08:51;;;;;;;6.03;5.25;;;;;;;;;;6189617;23;20043;-83
2022/02/10 02:11:17;;;;;;;6.55;5.43;;;;;;;;;;6211069;23;20028;-83
2022/02/10 02:13:43;;;;;;;5.75;4.28;;;;;;;;;;6210192;23;20050;-83
2022/02/10 02:16:08;;;;;;;5.75;4.70;;;;;;;;;;6210332;23;20016;-83
2022/02/10 02:18:34;;;;;;;5.13;4.63;;;;;;;;;;6183968;23;20026;-82
2022/02/10 02:21:00;;;;;;;7.10;4.78;;;;;;;;;;6206275;23;20020;-83
2022/02/10 02:23:28;;;;;;;5.85;4.53;;;;;;;;;;6182239;23;20020;-83
2022/02/10 02:26:03;;;;;;;6.20;4.90;;;;;;;;;;6157805;23;20031;-82
2022/02/10 02:28:28;;;;;;;5.53;4.95;;;;;;;;;;6205079;23;20050;-83
2022/02/10 02:31:00;;;;;;;7.20;5.65;;;;;;;;;;6181089;23;20021;-83
2022/02/10 02:34:01;;;;;;;7.00;4.95;;;;;;;;;;6157615;23;20017;-83
2022/02/10 02:39:22;;;;;;;6.13;5.38;;;;;;;;;;6186955;22;20079;-82
2022/02/10 03:06:32;;;;;;;7.57;5.22;;;;;;;;;;6195161;22;20023;-82
2022/02/10 03:09:07;;;;;;;5.97;5.30;;;;;;;;;;6210321;23;20020;-82
2022/02/10 03:11:35;;;;;;;9.45;5.80;;;;;;;;;;6204239;22;20389;-83
2022/02/10 03:14:08;;;;;;;5.93;5.30;;;;;;;;;;6181904;23;20028;-83
2022/02/10 03:17:09;;;;;;;8.40;5.75;;;;;;;;;;6206538;22;20012;-83
2022/02/10 03:22:25;;;;;;;6.85;6.05;;;;;;;;;;6208819;23;20020;-83
2022/02/10 04:06:30;;;;;;;9.48;7.13;;;;;;;;;;6100804;23;20471;-82
2022/02/10 04:14:15;;;;;;;8.90;6.70;;;;;;;;;;6206153;23;20361;-82
2022/02/10 04:16:48;;;;;;;10.75;7.00;;;;;;;;;;6221256;23;20020;-82
2022/02/10 04:22:07;;;;;;;8.18;6.50;;;;;;;;;;6205546;23;20050;-82
2022/02/10 04:25:05;;;;;;;9.88;6.90;;;;;;;;;;6180478;23;20020;-83
2022/02/10 04:53:26;;;;;;;10.68;7.57;;;;;;;;;;6195085;23;20040;-83
2022/02/10 04:54:59;;;;;;;10.10;7.63;;;;;;;;;;6197069;23;20027;-82
2022/02/10 04:57:29;;;;;;;7.93;6.78;;;;;;;;;;6218113;23;20017;-82
2022/02/10 05:00:16;;;;;;;10.82;6.68;;;;;;;;;;6226864;23;20069;-84
2022/02/10 05:14:49;;;;;;;8.73;6.43;;;;;;;;;;6193001;23;20075;-81
2022/02/10 05:22:16;;;;;;;8.07;6.45;;;;;;;;;;6215166;23;20095;-81
2022/02/10 05:38:28;;;;;;;8.70;6.28;;;;;;;;;;6195039;23;20020;-81
2022/02/10 05:46:08;;;;;;;7.13;5.82;;;;;;;;;;6205608;23;20358;-81
2022/02/10 05:56:38;;;;;;;6.85;5.80;;;;;;;;;;6211450;23;20115;-81
2022/02/10 06:02:03;;;;;;;7.55;6.40;;;;;;;;;;6186656;23;20017;-81
2022/02/10 06:42:16;;;;;;;6.70;5.07;;;;;;;;;;6188733;23;20027;-80
2022/02/10 06:48:49;;;;;;;6.45;5.28;;;;;;;;;;6191573;23;20339;-80
2022/02/10 06:54:02;;;;;;;9.25;5.60;;;;;;;;;;6203067;23;20020;-81
2022/02/10 07:05:16;;;;;;;6.35;5.45;;;;;;;;;;6237162;23;20016;-81
2022/02/10 07:10:40;;;;;;;8.35;5.45;;;;;;;;;;6193986;22;20024;-81
2022/02/10 07:45:04;;;;;;;8.73;6.28;;;;;;;;;;6203029;23;20043;-83
2022/02/10 07:49:31;;;;;;;10.75;7.15;;;;;;;;;;6179072;23;20404;-82
2022/02/10 07:52:28;;;;;;;9.45;6.30;;;;;;;;;;6211826;23;20088;-81
2022/02/10 07:58:18;;;;;;;8.30;6.00;;;;;;;;;;6090969;23;20420;-83
2022/02/10 08:04:11;;;;;;;9.20;5.90;;;;;;;;;;6081197;23;20043;-82
2022/02/10 08:26:35;;;;;;;9.35;5.20;;;;;;;;;;6193070;23;20051;-82
2022/02/10 08:54:07;;;;;;;7.03;4.93;;;;;;;;;;6184454;23;20024;-82
2022/02/10 09:04:17;;;;;;;6.43;5.03;;;;;;;;;;6197204;23;20052;-83
2022/02/10 09:07:09;;;;;;;5.80;4.60;;;;;;;;;;6217701;22;20374;-83
2022/02/10 09:10:36;;;;;;;7.93;5.20;;;;;;;;;;6218311;22;20044;-82
2022/02/10 09:12:50;;;;;;;6.43;4.90;;;;;;;;;;6191813;23;20017;-83
2022/02/10 09:21:35;;;;;;;5.00;4.40;;;;;;;;;;6093517;23;20022;-82
2022/02/10 09:27:45;;;;;;;6.70;5.43;;;;;;;;;;6164104;23;20028;-83
2022/02/10 09:55:09;;;;;;;8.85;5.05;;;;;;;;;;6217180;23;20570;-83
2022/02/10 10:02:57;;;;;;;7.22;4.55;;;;;;;;;;6241006;23;20074;-83
2022/02/10 10:05:30;;;;;;;5.45;4.50;;;;;;;;;;6184823;23;20009;-83
2022/02/10 10:08:33;;;;;;;6.80;4.75;;;;;;;;;;6214796;23;20359;-83
2022/02/10 10:19:47;;;;;;;7.90;4.63;;;;;;;;;;6121302;23;20017;-82
2022/02/10 10:25:51;;;;;;;8.13;5.18;;;;;;;;;;6219377;23;20467;-83
2022/02/10 10:50:42;;;;;;;7.72;4.68;;;;;;;;;;6190007;23;20019;-84
2022/02/10 10:53:30;;;;;;;8.70;4.93;;;;;;;;;;6166762;23;20028;-83
2022/02/10 10:56:12;;;;;;;7.38;5.13;;;;;;;;;;6211787;22;20462;-83
2022/02/10 11:36:23;;;;;;;7.95;5.10;;;;;;;;;;6208405;23;20021;-84
2022/02/10 11:38:54;;;;;;;7.63;4.88;;;;;;;;;;6216078;23;20093;-83
2022/02/10 11:41:23;;;;;;;7.60;4.72;;;;;;;;;;6195331;23;20028;-83
2022/02/10 12:29:20;;;;;;;9.15;5.13;;;;;;;;;;6252982;23;20078;-85
2022/02/10 12:37:27;;;;;;;9.38;5.15;;;;;;;;;;6239911;23;20043;-85
2022/02/10 12:42:11;;;;;;;10.75;5.40;;;;;;;;;;6213982;23;20020;-84
2022/02/10 13:28:26;;;;;;;9.63;6.72;;;;;;;;;;6220865;23;20054;-85
2022/02/10 13:31:25;;;;;;;8.68;6.28;;;;;;;;;;6195976;23;20017;-84
2022/02/10 14:09:42;;;;;;;12.93;8.73;;;;;;;;;;6198207;23;20047;-83
2022/02/10 14:12:57;;;;;;;13.55;8.30;;;;;;;;;;6213820;23;20088;-83
2022/02/10 14:14:59;;;;;;;14.80;8.95;;;;;;;;;;6179554;23;20016;-83
2022/02/10 14:17:31;;;;;;;13.93;8.95;;;;;;;;;;6208075;23;20026;-83
2022/02/10 14:20:11;;;;;;;15.50;9.23;;;;;;;;;;6195725;23;20028;-83
2022/02/10 14:22:40;;;;;;;19.33;10.43;;;;;;;;;;6196725;22;20020;-83
2022/02/10 14:27:51;;;;;;;16.95;11.35;;;;;;;;;;6193018;23;20063;-83
2022/02/10 14:30:17;;;;;;;20.05;13.15;;;;;;;;;;6209690;23;20229;-84
2022/02/10 14:32:45;;;;;;;16.58;11.30;;;;;;;;;;6188832;22;20426;-83
2022/02/10 14:35:27;;;;;;;18.38;12.20;;;;;;;;;;6166718;23;20427;-83
2022/02/10 14:38:12;;;;;;;16.23;11.23;;;;;;;;;;6188299;23;20021;-83
2022/02/10 14:41:07;;;;;;;3.40;2.05;;;;;;;;;;6221932;23;20016;-84
2022/02/10 15:20:58;;;;;;;1.38;1.17;;;;;;;;;;6193326;23;20051;-84
2022/02/10 15:33:24;;;;;;;0.90;0.70;;;;;;;;;;6196668;23;20048;-84
2022/02/10 15:36:11;;;;;;;1.65;0.98;;;;;;;;;;6215245;22;20020;-84
2022/02/10 15:47:29;;;;;;;4.22;1.88;;;;;;;;;;6192608;23;20047;-84
2022/02/10 15:49:47;;;;;;;1.70;1.20;;;;;;;;;;6218888;22;20021;-85
2022/02/10 15:53:10;;;;;;;2.15;1.10;;;;;;;;;;6214804;22;20480;-86
2022/02/10 16:12:59;;;;;;;1.75;1.40;;;;;;;;;;6239801;23;20409;-86
2022/02/10 16:17:39;;;;;;;1.63;1.17;;;;;;;;;;6216349;23;20121;-85
2022/02/10 16:20:08;;;;;;;2.03;1.85;;;;;;;;;;6188954;23;20040;-86
2022/02/10 16:22:49;;;;;;;4.03;2.97;;;;;;;;;;6162543;23;20053;-83
2022/02/10 16:25:17;;;;;;;4.88;4.47;;;;;;;;;;6201705;23;20026;-85
2022/02/10 16:27:49;;;;;;;3.30;2.90;;;;;;;;;;6183839;22;20020;-84
2022/02/10 16:30:15;;;;;;;2.45;2.03;;;;;;;;;;6169941;23;20024;-85
2022/02/10 16:32:41;;;;;;;2.95;1.63;;;;;;;;;;6162846;23;20023;-84
2022/02/10 16:35:09;;;;;;;2.72;1.65;;;;;;;;;;6212819;23;20047;-84
2022/02/10 16:37:35;;;;;;;2.40;1.52;;;;;;;;;;6190846;23;20016;-84
2022/02/10 16:40:01;;;;;;;2.47;1.40;;;;;;;;;;6164589;23;20032;-84
2022/02/10 16:42:27;;;;;;;3.53;1.92;;;;;;;;;;6182206;23;20035;-84
2022/02/10 16:44:53;;;;;;;2.92;1.80;;;;;;;;;;6194647;23;20074;-84
2022/02/10 16:47:19;;;;;;;2.70;1.90;;;;;;;;;;6192411;23;20055;-84
2022/02/10 16:49:49;;;;;;;4.38;1.90;;;;;;;;;;6213271;23;20036;-84
2022/02/10 16:52:21;;;;;;;3.40;1.55;;;;;;;;;;6192103;23;20025;-84
2022/02/10 16:54:49;;;;;;;1.88;1.70;;;;;;;;;;6194600;23;20031;-84
2022/02/10 16:57:33;;;;;;;2.28;2.08;;;;;;;;;;6166473;23;20024;-84
2022/02/10 17:00:21;;;;;;;3.40;1.77;;;;;;;;;;6173682;23;20027;-85
2022/02/10 17:05:37;;;;;;;3.83;1.98;;;;;;;;;;6220540;23;20077;-83
2022/02/10 17:17:12;;;;;;;2.83;2.38;;;;;;;;;;6212628;23;20043;-83
2022/02/10 17:27:11;;;;;;;2.70;2.35;;;;;;;;;;6220637;22;19986;-83
2022/02/10 17:30:12;;;;;;;2.88;2.42;;;;;;;;;;6200143;23;20012;-85
2022/02/10 17:32:58;;;;;;;4.68;3.05;;;;;;;;;;6213499;23;20406;-85
2022/02/10 17:35:45;;;;;;;3.33;2.95;;;;;;;;;;6213049;23;20036;-84
2022/02/10 17:46:14;;;;;;;3.75;2.50;;;;;;;;;;6206438;23;20351;-84
2022/02/10 17:54:02;;;;;;;5.22;2.78;;;;;;;;;;6158111;23;20280;-85
2022/02/10 17:56:34;;;;;;;3.30;2.50;;;;;;;;;;6169234;23;20079;-84
2022/02/10 17:59:00;;;;;;;3.25;2.63;;;;;;;;;;6214928;23;20016;-83
2022/02/10 18:01:27;;;;;;;4.30;2.30;;;;;;;;;;6186260;23;20024;-83
2022/02/10 18:03:53;;;;;;;2.72;2.13;;;;;;;;;;6230261;23;20019;-83
2022/02/10 18:06:28;;;;;;;2.80;2.58;;;;;;;;;;6257142;23;20024;-84
2022/02/10 18:09:27;;;;;;;6.15;3.05;;;;;;;;;;6235504;23;20222;-85
2022/02/10 18:12:53;;;;;;;4.50;3.00;;;;;;;;;;6212452;23;20020;-85
2022/02/10 18:15:02;;;;;;;3.50;2.58;;;;;;;;;;6234816;23;20521;-86
2022/02/10 18:17:36;;;;;;;3.30;2.53;;;;;;;;;;6221417;23;20024;-86
2022/02/10 18:20:16;;;;;;;4.22;2.22;;;;;;;;;;6184318;23;20024;-86
2022/02/10 18:22:57;;;;;;;4.05;2.30;;;;;;;;;;6180463;22;20017;-86
2022/02/10 18:33:27;;;;;;;4.20;2.50;;;;;;;;;;6195006;23;20021;-85
2022/02/10 18:33:36;;;;;;;4.30;3.10;;;;;;;;;;6195487;23;20027;-85
2022/02/10 19:08:26;;;;;;;6.30;2.97;;;;;;;;;;6186700;22;20305;-84
2022/02/10 19:10:59;;;;;;;4.28;2.65;;;;;;;;;;6189013;23;20210;-84
2022/02/10 19:13:24;;;;;;;3.65;1.98;;;;;;;;;;6217377;22;20020;-84
2022/02/10 19:15:54;;;;;;;4.53;2.55;;;;;;;;;;6188386;23;20027;-85
2022/02/10 19:18:19;;;;;;;5.72;2.78;;;;;;;;;;6221051;23;20016;-85
2022/02/10 19:20:45;;;;;;;2.55;2.03;;;;;;;;;;6194160;23;20074;-85
2022/02/10 19:23:11;;;;;;;4.10;2.00;;;;;;;;;;6210372;23;20028;-85
2022/02/10 19:25:39;;;;;;;3.22;2.28;;;;;;;;;;6156875;23;20071;-84
2022/02/10 19:28:09;;;;;;;2.25;2.00;;;;;;;;;;6205232;23;20027;-85
2022/02/10 19:30:37;;;;;;;3.95;1.73;;;;;;;;;;6162862;23;20512;-84
2022/02/10 19:33:08;;;;;;;2.97;1.65;;;;;;;;;;6159445;23;20501;-84
2022/02/10 19:35:39;;;;;;;2.92;1.60;;;;;;;;;;6183178;23;20100;-85
2022/02/10 19:38:06;;;;;;;2.17;1.27;;;;;;;;;;6139678;23;20026;-84
2022/02/10 19:40:36;;;;;;;5.30;2.00;;;;;;;;;;6183809;23;20422;-84
2022/02/10 19:43:02;;;;;;;8.75;4.18;;;;;;;;;;6212451;23;20463;-84
2022/02/10 19:45:28;;;;;;;3.30;2.38;;;;;;;;;;6185925;23;20072;-85
2022/02/10 19:47:54;;;;;;;2.72;1.85;;;;;;;;;;6161974;23;20490;-85
2022/02/10 19:50:27;;;;;;;3.92;1.67;;;;;;;;;;6187935;23;20229;-84
2022/02/10 19:52:55;;;;;;;2.47;2.15;;;;;;;;;;6161045;23;20225;-86
2022/02/10 19:55:23;;;;;;;3.65;2.25;;;;;;;;;;6187170;23;20028;-86
2022/02/10 19:57:53;;;;;;;5.72;2.40;;;;;;;;;;6187236;23;20021;-85
2022/02/10 20:00:25;;;;;;;5.65;2.80;;;;;;;;;;6208177;23;20020;-85
2022/02/10 20:02:50;;;;;;;5.38;2.83;;;;;;;;;;6164563;23;20051;-86
2022/02/10 20:05:21;;;;;;;5.45;2.78;;;;;;;;;;6188561;23;20024;-86
2022/02/10 20:07:51;;;;;;;5.38;3.58;;;;;;;;;;6189082;23;20043;-88
2022/02/10 20:10:17;;;;;;;6.55;3.33;;;;;;;;;;6143846;23;20020;-87
2022/02/10 20:12:43;;;;;;;6.97;3.60;;;;;;;;;;6170328;23;20071;-85
2022/02/10 20:15:11;;;;;;;5.45;3.25;;;;;;;;;;6190832;23;20024;-86
2022/02/10 20:17:38;;;;;;;6.82;4.28;;;;;;;;;;6199298;23;20019;-85
2022/02/10 20:20:04;;;;;;;8.20;3.83;;;;;;;;;;6181736;23;20071;-84
2022/02/10 20:22:36;;;;;;;7.43;4.90;;;;;;;;;;6184468;23;20033;-85
2022/02/10 20:25:03;;;;;;;9.38;5.07;;;;;;;;;;6202798;22;20768;-85
2022/02/10 20:27:29;;;;;;;11.13;5.60;;;;;;;;;;6164983;23;20040;-85
2022/02/10 20:29:54;;;;;;;6.38;4.80;;;;;;;;;;6207677;23;20036;-85
2022/02/10 20:32:20;;;;;;;7.72;4.65;;;;;;;;;;6184957;23;20406;-84
2022/02/10 20:34:47;;;;;;;5.22;4.25;;;;;;;;;;6158428;23;20019;-84
2022/02/10 20:37:13;;;;;;;6.55;4.28;;;;;;;;;;6181851;23;20025;-84
2022/02/10 20:39:39;;;;;;;8.65;4.38;;;;;;;;;;6181803;23;20025;-84
2022/02/10 20:42:10;;;;;;;7.57;3.88;;;;;;;;;;6156305;23;20025;-83
2022/02/10 20:44:37;;;;;;;8.32;5.03;;;;;;;;;;6209717;23;20394;-83
2022/02/10 20:47:04;;;;;;;6.15;3.88;;;;;;;;;;6183447;23;20048;-83
2022/02/10 20:49:29;;;;;;;5.53;3.85;;;;;;;;;;6184208;23;20016;-84
2022/02/10 20:51:56;;;;;;;5.70;4.32;;;;;;;;;;6186308;23;20020;-84
2022/02/10 20:54:23;;;;;;;7.30;3.92;;;;;;;;;;6210197;23;20025;-85
2022/02/10 20:56:48;;;;;;;6.25;4.45;;;;;;;;;;6161997;23;20019;-85
2022/02/10 20:59:48;;;;;;;7.95;5.03;;;;;;;;;;6187249;23;20020;-84
2022/02/10 21:02:19;;;;;;;7.68;4.18;;;;;;;;;;6192801;23;20025;-84
2022/02/10 21:04:59;;;;;;;6.32;4.15;;;;;;;;;;6187171;23;20017;-84
2022/02/10 21:07:33;;;;;;;7.28;4.72;;;;;;;;;;6208422;23;20031;-84
2022/02/10 21:10:04;;;;;;;8.90;5.18;;;;;;;;;;6199603;22;20017;-84
2022/02/10 21:12:35;;;;;;;6.60;4.85;;;;;;;;;;6192412;23;20433;-83
2022/02/10 21:15:04;;;;;;;10.52;5.32;;;;;;;;;;6192277;23;20016;-84
2022/02/10 21:17:31;;;;;;;10.30;5.28;;;;;;;;;;6189668;23;20015;-83
2022/02/10 21:20:01;;;;;;;13.43;5.25;;;;;;;;;;6211954;23;20780;-83
2022/02/10 21:22:27;;;;;;;11.00;5.95;;;;;;;;;;6211971;23;20020;-83
2022/02/10 21:25:01;;;;;;;9.57;5.95;;;;;;;;;;6189172;23;20008;-84
2022/02/10 21:27:33;;;;;;;6.82;5.40;;;;;;;;;;6213851;23;20097;-84
2022/02/10 21:30:03;;;;;;;17.85;6.20;;;;;;;;;;6215272;23;20012;-83
2022/02/10 21:32:31;;;;;;;10.20;5.82;;;;;;;;;;6202675;23;20028;-84
2022/02/10 21:54:39;;;;;;;11.85;6.65;;;;;;;;;;6213295;23;20074;-85
2022/02/10 21:57:21;;;;;;;11.27;6.80;;;;;;;;;;6167118;23;20017;-84
2022/02/10 22:23:22;;;;;;;11.25;6.93;;;;;;;;;;6187197;23;20012;-83
2022/02/10 22:25:50;;;;;;;11.38;7.50;;;;;;;;;;6184291;23;20024;-83
2022/02/10 22:30:56;;;;;;;9.45;6.40;;;;;;;;;;6186960;23;20031;-83
2022/02/10 22:33:41;;;;;;;9.00;6.25;;;;;;;;;;6161746;23;20021;-83
2022/02/10 22:36:09;;;;;;;11.30;6.57;;;;;;;;;;6199352;23;20148;-83
2022/02/10 22:38:36;;;;;;;11.27;7.07;;;;;;;;;;6204518;23;20039;-83
2022/02/10 22:41:09;;;;;;;13.25;7.03;;;;;;;;;;6187423;23;20032;-83
2022/02/10 22:43:36;;;;;;;12.40;6.95;;;;;;;;;;6219317;23;20024;-83
2022/02/10 22:46:01;;;;;;;13.10;7.38;;;;;;;;;;6221621;23;20079;-83
2022/02/10 22:48:27;;;;;;;10.63;6.55;;;;;;;;;;6215543;23;20046;-83
2022/02/10 22:50:53;;;;;;;14.20;7.32;;;;;;;;;;6216676;23;20082;-83
2022/02/10 22:53:19;;;;;;;10.95;7.05;;;;;;;;;;6189024;23;20012;-84
2022/02/10 22:55:44;;;;;;;12.02;7.07;;;;;;;;;;6213768;23;20020;-84
2022/02/10 22:58:10;;;;;;;15.25;7.72;;;;;;;;;;6188506;23;20571;-83
2022/02/10 23:00:46;;;;;;;11.95;6.45;;;;;;;;;;6213564;23;20044;-83
2022/02/10 23:03:12;;;;;;;;;;;;;;;;;;6217117;23;20031;-84
2022/02/10 23:05:38;;;;;;;7.38;4.15;;;;;;;;;;6189698;23;20365;-83
2022/02/10 23:08:05;;;;;;;8.57;4.30;;;;;;;;;;6214168;23;20058;-84
2022/02/10 23:10:47;;;;;;;6.25;4.07;;;;;;;;;;6211648;23;20068;-83
2022/02/10 23:13:27;;;;;;;8.93;3.97;;;;;;;;;;6215667;23;20393;-83
2022/02/10 23:15:56;;;;;;;9.23;4.65;;;;;;;;;;6189467;23;20028;-84
2022/02/10 23:18:23;;;;;;;6.53;3.90;;;;;;;;;;6184082;23;20044;-83
2022/02/10 23:20:51;;;;;;;5.88;3.17;;;;;;;;;;6211653;23;20103;-84
2022/02/10 23:23:19;;;;;;;6.72;3.20;;;;;;;;;;6211123;23;20031;-83
2022/02/10 23:25:46;;;;;;;6.10;3.70;;;;;;;;;;6187298;23;20342;-83
2022/02/10 23:28:19;;;;;;;7.53;3.30;;;;;;;;;;6210717;23;20023;-84
2022/02/10 23:30:46;;;;;;;6.53;2.88;;;;;;;;;;6185665;23;20012;-83
2022/02/10 23:33:20;;;;;;;5.30;2.53;;;;;;;;;;6211498;23;20024;-83
2022/02/10 23:38:37;;;;;;;7.57;2.72;;;;;;;;;;6215746;23;20094;-83
2022/02/10 23:41:44;;;;;;;8.02;2.38;;;;;;;;;;6199896;23;20012;-83
2022/02/10 23:43:52;;;;;;;4.18;1.65;;;;;;;;;;6211855;23;20012;-83
2022/02/10 23:46:19;;;;;;;5.32;1.95;;;;;;;;;;6180644;23;20352;-83
2022/02/10 23:48:46;;;;;;;7.57;2.08;;;;;;;;;;6157728;23;20013;-83
2022/02/10 23:51:11;;;;;;;4.00;2.03;;;;;;;;;;6178683;23;20048;-83
2022/02/10 23:53:38;;;;;;;7.18;2.38;;;;;;;;;;6154410;23;20020;-83
2022/02/10 23:56:08;;;;;;;4.93;2.00;;;;;;;;;;6153598;23;20027;-83
2022/02/10 23:58:49;;;;;;;4.97;2.05;;;;;;;;;;6205736;23;20082;-83
